x

Buoy I01 - Eastern Maine Shelf (44034) Wave Buoy

9:04pm - Sat 25th Oct 2014 All times are EDT. -4 hours from GMT.

  • Sig Wave height 2.0ft
  • Peak Period 4s
  • Wind
    11mph, 13mph gusts
  • Sea Temp 56°f
  • Air Temp 55°f
  • Sea Pressure 999.4mb
  • Buoy I01 - Eastern Maine Shelf
  • Buoy I01 - Eastern Maine Shelf

More Historic Weather Station data

Upgrade to MSW Pro to gain access to the past 30 days of data for over 8000 Wavebouys and Weather Stations around the globe.

Join Pro

Comparision Forecast

View Surf forecast
   
Sat 10/25 9:04pm 2ft 4s 11 13 mph 999.4mb 56f 55f
8:04pm 1.3ft 4s 11 13 mph 1000mb 56f 55f
7:04pm 1.6ft 8s 11 13 mph 1000.2mb 56f 55f
6:04pm 1.3ft 4s 9 11 mph 999.9mb 56f 55f
5:04pm 1.3ft 3s 11 13 mph 1000.2mb 56f 55f
4:04pm 1.3ft 3s 13 16 mph 1000.5mb 56f 55f
3:04pm 2ft 8s 11 13 mph 1000.9mb 56f 55f
2:04pm 1ft 3s 11 13 mph 1000.5mb 56f 54f
1:04pm 1.6ft 3s 9 13 mph 1001mb 56f 53f
12:04pm 2ft 8s 13 18 mph 1001.5mb 56f 52f
11:04am 1.6ft 3s 11 16 mph 1002.3mb 56f 51f
10:04am 2ft 4s 11 16 mph 1002.9mb 56f 49f
9:04am 2ft 3s 16 22 mph 1003.2mb 56f 49f
8:04am 2.5ft 4s 18 20 mph 1003mb 56f 48f
7:04am 2.5ft 4s 16 20 mph 1002.9mb 56f 48f
6:04am 2.5ft 4s 18 25 mph 1002.6mb 56f 48f
5:04am 2.5ft 3s 20 22 mph 1002.3mb 56f 48f
4:04am 4ft 11s 18 20 mph 1002.3mb 55f 47f
3:04am 3.5ft 4s 18 20 mph 1002.1mb 56f 47f
2:04am 3.5ft 5s 20 25 mph 1001.8mb 56f 47f
1:04am  -   -  20 25 mph 1001.5mb 55f 47f
12:04am 3ft 4s 20 22 mph 1001.8mb 56f 47f
Fri 10/24 10:04pm  -   -  18 22 mph 1002.1mb 56f 47f
9:04pm 4.5ft 8s 20 22 mph 1002mb 56f 48f
8:04pm  -   -  20 25 mph 1001.5mb 55f 48f
7:04pm  -   -  18 22 mph 1001.4mb 56f 49f
6:04pm 6ft 11s 20 25 mph 1001mb 56f 50f
5:04pm 6ft 11s 20 25 mph 1000.7mb 55f 50f
4:04pm 7.5ft 11s 22 27 mph 1000.2mb 55f 51f
3:04pm 6ft 11s 22 27 mph 1000.1mb 56f 51f
2:04pm 7ft 11s 22 27 mph 1000.2mb 56f 51f
1:04pm 7ft 11s 22 27 mph 1000.3mb 56f 51f
12:04pm 8ft 11s 20 25 mph 1000.6mb 56f 51f
11:04am 7.5ft 11s 22 25 mph 1000.8mb 56f 52f
10:04am 8ft 11s 20 25 mph 1000.9mb 56f 52f
9:04am 7.5ft 8s 20 27 mph 1000.8mb 56f 52f
8:04am 9ft 6s 20 27 mph 1001.1mb 55f 52f
7:04am  -   -  22 27 mph 1000.9mb 55f 52f
6:04am 10.5ft 11s 22 27 mph 1001.3mb 55f 53f
5:04am 10ft 11s 22 29 mph 1001.1mb 55f 53f
4:04am 9.5ft 8s 22 27 mph 1001.1mb 55f 53f
3:04am 9ft 8s 25 34 mph 1001.2mb 56f 54f
2:04am 9ft 8s 22 27 mph 1001.5mb 56f 54f
1:04am 10ft 11s 25 31 mph 1001.7mb 56f 54f
12:04am 9.5ft 8s 31 38 mph 999.9mb 56f 53f
Thu 10/23 11:04pm 12ft 8s 27 34 mph 1002.6mb 55f 54f
10:04pm 12ft 11s 27 34 mph 1002.9mb 55f 53f
9:04pm 12ft 8s 29 36 mph 1003.8mb 55f 53f
8:04pm 11ft 8s 29 34 mph 1004.5mb 55f 54f
7:04pm 12.5ft 8s 31 38 mph 1004.9mb 55f 54f
6:04pm 13ft 8s 36 45 mph 1004.1mb 55f 54f
5:04pm  -   -  38 51 mph 1004.3mb 55f 54f
4:04pm 12.5ft 8s 40 47 mph 1004.6mb 55f 53f
3:04pm 15ft 8s 36 45 mph 1004.9mb 55f 54f
2:04pm 15.5ft 8s 38 51 mph 1005.1mb 55f 54f
1:04pm 14ft 8s 36 45 mph 1006mb 55f 54f
12:04pm 14.5ft 8s 36 45 mph 1006.5mb 55f 55f
11:04am 15.5ft 8s 36 45 mph 1007.1mb 55f 54f
10:04am 13ft 8s 36 47 mph 1007.9mb 55f 54f
9:04am 13.5ft 8s 36 45 mph 1008.1mb 55f 55f
8:04am 12.5ft 8s 36 45 mph 1008.4mb 55f 55f
7:04am 13ft 8s 34 43 mph 1009mb 55f 54f
6:04am 12ft 8s 36 43 mph 1009.3mb 55f 54f
5:04am  -   -  38 45 mph 1009.6mb - 54f
4:04am 13ft 8s 29 40 mph 1010.5mb 55f 54f
3:04am 11.5ft 8s 36 43 mph 1011.2mb 55f 53f
2:04am 13.5ft 8s 36 45 mph 1012mb 55f 54f
1:04am 11ft 8s 34 40 mph 1012.8mb 54f 53f
12:04am 13.5ft 8s 34 43 mph 1013.3mb 54f 52f
Wed 10/22 11:04pm  -   -  36 45 mph 1013.9mb 55f 51f
10:04pm 13ft 8s 36 45 mph - 55f 51f
9:04pm 13.5ft 8s 36 45 mph 1014.8mb 55f 51f
8:04pm 14ft 8s 34 43 mph 1016.1mb 55f 51f
7:04pm 14.5ft 8s 34 45 mph 1016.9mb 55f 51f
6:04pm 15ft 8s 38 47 mph 1016.9mb 55f 51f
5:04pm 16.5ft 8s 38 47 mph 1016.9mb 55f 51f
4:04pm 15.5ft 8s 40 49 mph 1016.7mb 55f 51f
3:04pm 14ft 8s 38 47 mph 1016.1mb 55f 51f
2:04pm 12ft 8s 38 47 mph 1015.9mb 55f 51f
1:04pm 13.5ft 8s 36 45 mph 1016.2mb 55f 51f
12:04pm 11ft 8s 34 40 mph 1016.9mb 55f 53f
11:04am 10ft 8s 34 40 mph 1017.4mb 55f 53f
10:04am 10ft 8s 31 40 mph 1017.8mb 55f 53f
9:04am 9ft 6s 31 40 mph 1018.3mb 55f 52f
8:04am 9ft 6s 31 36 mph 1018.4mb 56f 53f
7:04am 10ft 6s 29 38 mph 1018.3mb 56f 53f
6:04am 10ft 6s 29 34 mph 1018.4mb 56f 53f
5:04am 8.5ft 6s 31 38 mph 1018.2mb 56f 54f
4:04am 7ft 6s 29 43 mph 1017.7mb 56f 54f
3:04am 6.5ft 6s 27 34 mph 1017.7mb 56f 55f